sensor_id;sensor_type;location;lat;lon;timestamp;pressure;altitude;pressure_sealevel;temperature;humidity
47983;BME280;33751;50.816;-1.214;2023-04-26T00:00:07;101779.77;;;25.32;100.00
47983;BME280;33751;50.816;-1.214;2023-04-26T00:02:34;101780.09;;;24.90;100.00
47983;BME280;33751;50.816;-1.214;2023-04-26T00:05:01;101775.53;;;24.81;100.00
47983;BME280;33751;50.816;-1.214;2023-04-26T00:07:27;101775.85;;;24.76;100.00
47983;BME280;33751;50.816;-1.214;2023-04-26T00:09:54;101780.28;;;24.76;100.00
47983;BME280;33751;50.816;-1.214;2023-04-26T00:12:21;101783.30;;;24.70;100.00
47983;BME280;33751;50.816;-1.214;2023-04-26T00:14:48;101778.46;;;25.15;100.00
47983;BME280;33751;50.816;-1.214;2023-04-26T00:17:15;101772.71;;;25.13;100.00
47983;BME280;33751;50.816;-1.214;2023-04-26T00:19:42;101770.91;;;24.67;100.00
47983;BME280;33751;50.816;-1.214;2023-04-26T00:22:09;101774.97;;;25.22;100.00
47983;BME280;33751;50.816;-1.214;2023-04-26T00:24:35;101775.79;;;24.85;100.00
47983;BME280;33751;50.816;-1.214;2023-04-26T00:27:02;101766.61;;;24.93;100.00
47983;BME280;33751;50.816;-1.214;2023-04-26T00:29:29;101758.91;;;24.50;100.00
47983;BME280;33751;50.816;-1.214;2023-04-26T00:31:55;101759.44;;;24.98;100.00
47983;BME280;33751;50.816;-1.214;2023-04-26T00:34:22;101757.84;;;24.85;100.00
47983;BME280;33751;50.816;-1.214;2023-04-26T00:36:49;101757.33;;;24.57;100.00
47983;BME280;33751;50.816;-1.214;2023-04-26T00:39:16;101757.05;;;24.78;100.00
47983;BME280;33751;50.816;-1.214;2023-04-26T00:41:42;101752.40;;;24.68;100.00
47983;BME280;33751;50.816;-1.214;2023-04-26T00:44:09;101747.82;;;24.82;100.00
47983;BME280;33751;50.816;-1.214;2023-04-26T00:46:35;101751.26;;;24.55;100.00
47983;BME280;33751;50.816;-1.214;2023-04-26T00:49:03;101755.96;;;24.32;100.00
47983;BME280;33751;50.816;-1.214;2023-04-26T00:51:29;101751.01;;;24.32;100.00
47983;BME280;33751;50.816;-1.214;2023-04-26T00:53:56;101748.08;;;24.26;100.00
47983;BME280;33751;50.816;-1.214;2023-04-26T00:56:23;101750.26;;;24.57;100.00
47983;BME280;33751;50.816;-1.214;2023-04-26T00:58:50;101754.42;;;24.55;100.00
47983;BME280;33751;50.816;-1.214;2023-04-26T01:01:17;101750.69;;;24.33;100.00
47983;BME280;33751;50.816;-1.214;2023-04-26T01:03:44;101738.06;;;24.43;100.00
47983;BME280;33751;50.816;-1.214;2023-04-26T01:06:11;101729.52;;;24.44;100.00
47983;BME280;33751;50.816;-1.214;2023-04-26T01:08:38;101727.02;;;24.40;100.00
47983;BME280;33751;50.816;-1.214;2023-04-26T01:11:05;101719.59;;;24.43;100.00
47983;BME280;33751;50.816;-1.214;2023-04-26T01:13:32;101717.97;;;24.26;100.00
47983;BME280;33751;50.816;-1.214;2023-04-26T01:16:01;101718.73;;;24.48;100.00
47983;BME280;33751;50.816;-1.214;2023-04-26T01:18:28;101720.02;;;24.58;100.00
47983;BME280;33751;50.816;-1.214;2023-04-26T01:20:54;101716.75;;;24.87;100.00
47983;BME280;33751;50.816;-1.214;2023-04-26T01:23:21;101705.41;;;24.47;100.00
47983;BME280;33751;50.816;-1.214;2023-04-26T01:25:47;101688.03;;;24.51;100.00
47983;BME280;33751;50.816;-1.214;2023-04-26T01:28:15;101683.60;;;24.75;100.00
47983;BME280;33751;50.816;-1.214;2023-04-26T01:30:41;101675.18;;;24.46;100.00
47983;BME280;33751;50.816;-1.214;2023-04-26T01:33:08;101672.35;;;24.46;100.00
47983;BME280;33751;50.816;-1.214;2023-04-26T01:35:35;101678.21;;;24.45;100.00
47983;BME280;33751;50.816;-1.214;2023-04-26T01:38:01;101683.38;;;24.45;100.00
47983;BME280;33751;50.816;-1.214;2023-04-26T01:40:28;101686.34;;;24.00;100.00
47983;BME280;33751;50.816;-1.214;2023-04-26T01:42:55;101691.47;;;24.38;100.00
47983;BME280;33751;50.816;-1.214;2023-04-26T01:45:22;101697.36;;;24.37;100.00
47983;BME280;33751;50.816;-1.214;2023-04-26T01:47:49;101699.09;;;24.36;100.00
47983;BME280;33751;50.816;-1.214;2023-04-26T01:50:17;101696.22;;;24.25;100.00
47983;BME280;33751;50.816;-1.214;2023-04-26T01:52:44;101692.72;;;24.20;100.00
47983;BME280;33751;50.816;-1.214;2023-04-26T01:55:10;101685.65;;;24.24;100.00
47983;BME280;33751;50.816;-1.214;2023-04-26T01:57:37;101683.42;;;24.05;100.00
47983;BME280;33751;50.816;-1.214;2023-04-26T02:00:05;101681.48;;;24.22;100.00
47983;BME280;33751;50.816;-1.214;2023-04-26T02:02:32;101686.97;;;24.26;100.00
47983;BME280;33751;50.816;-1.214;2023-04-26T02:04:58;101691.96;;;24.43;100.00
47983;BME280;33751;50.816;-1.214;2023-04-26T02:07:24;101697.01;;;23.70;100.00
47983;BME280;33751;50.816;-1.214;2023-04-26T02:09:51;101699.63;;;24.12;100.00
47983;BME280;33751;50.816;-1.214;2023-04-26T02:12:18;101696.01;;;24.17;100.00
47983;BME280;33751;50.816;-1.214;2023-04-26T02:14:44;101695.35;;;24.21;100.00
47983;BME280;33751;50.816;-1.214;2023-04-26T02:17:11;101705.08;;;24.15;100.00
47983;BME280;33751;50.816;-1.214;2023-04-26T02:19:38;101708.08;;;24.15;100.00
47983;BME280;33751;50.816;-1.214;2023-04-26T02:22:04;101704.14;;;24.37;100.00
47983;BME280;33751;50.816;-1.214;2023-04-26T02:24:31;101703.77;;;24.07;100.00
47983;BME280;33751;50.816;-1.214;2023-04-26T02:26:58;101703.66;;;24.58;100.00
47983;BME280;33751;50.816;-1.214;2023-04-26T02:29:25;101704.87;;;23.67;100.00
47983;BME280;33751;50.816;-1.214;2023-04-26T02:31:51;101699.17;;;24.01;100.00
47983;BME280;33751;50.816;-1.214;2023-04-26T02:34:18;101692.40;;;23.99;100.00
47983;BME280;33751;50.816;-1.214;2023-04-26T02:36:44;101689.21;;;24.05;100.00
47983;BME280;33751;50.816;-1.214;2023-04-26T02:39:10;101685.48;;;23.93;100.00
47983;BME280;33751;50.816;-1.214;2023-04-26T02:41:37;101685.38;;;23.82;100.00
47983;BME280;33751;50.816;-1.214;2023-04-26T02:44:04;101686.12;;;23.70;100.00
47983;BME280;33751;50.816;-1.214;2023-04-26T02:46:31;101685.13;;;23.93;100.00
47983;BME280;33751;50.816;-1.214;2023-04-26T02:48:57;101688.66;;;23.91;100.00
47983;BME280;33751;50.816;-1.214;2023-04-26T02:51:24;101691.38;;;23.90;100.00
47983;BME280;33751;50.816;-1.214;2023-04-26T02:53:51;101692.81;;;24.14;100.00
47983;BME280;33751;50.816;-1.214;2023-04-26T02:56:18;101692.76;;;24.16;100.00
47983;BME280;33751;50.816;-1.214;2023-04-26T02:58:44;101688.90;;;24.18;100.00
47983;BME280;33751;50.816;-1.214;2023-04-26T03:01:11;101686.21;;;24.35;100.00
47983;BME280;33751;50.816;-1.214;2023-04-26T03:03:37;101687.84;;;23.87;100.00
47983;BME280;33751;50.816;-1.214;2023-04-26T03:06:05;101688.36;;;24.09;100.00
47983;BME280;33751;50.816;-1.214;2023-04-26T03:08:32;101683.49;;;24.14;100.00
47983;BME280;33751;50.816;-1.214;2023-04-26T03:10:59;101679.87;;;23.87;100.00
47983;BME280;33751;50.816;-1.214;2023-04-26T03:13:26;101676.10;;;23.82;100.00
47983;BME280;33751;50.816;-1.214;2023-04-26T03:15:53;101674.20;;;24.26;100.00
47983;BME280;33751;50.816;-1.214;2023-04-26T03:18:19;101667.77;;;24.02;100.00
47983;BME280;33751;50.816;-1.214;2023-04-26T03:20:46;101663.54;;;23.75;100.00
47983;BME280;33751;50.816;-1.214;2023-04-26T03:23:13;101662.27;;;23.73;100.00
47983;BME280;33751;50.816;-1.214;2023-04-26T03:25:40;101663.21;;;23.70;100.00
47983;BME280;33751;50.816;-1.214;2023-04-26T03:28:06;101654.00;;;24.07;100.00
47983;BME280;33751;50.816;-1.214;2023-04-26T03:30:33;101649.95;;;23.87;100.00
47983;BME280;33751;50.816;-1.214;2023-04-26T03:32:59;101651.13;;;23.85;100.00
47983;BME280;33751;50.816;-1.214;2023-04-26T03:35:26;101650.90;;;23.82;100.00
47983;BME280;33751;50.816;-1.214;2023-04-26T03:37:52;101648.11;;;24.23;100.00
47983;BME280;33751;50.816;-1.214;2023-04-26T03:40:19;101643.02;;;24.03;100.00
47983;BME280;33751;50.816;-1.214;2023-04-26T03:42:45;101642.62;;;24.28;100.00
47983;BME280;33751;50.816;-1.214;2023-04-26T03:45:12;101638.24;;;24.03;100.00
47983;BME280;33751;50.816;-1.214;2023-04-26T03:47:38;101633.89;;;24.22;100.00
47983;BME280;33751;50.816;-1.214;2023-04-26T03:50:06;101630.31;;;24.15;100.00
47983;BME280;33751;50.816;-1.214;2023-04-26T03:52:34;101631.51;;;23.66;100.00
47983;BME280;33751;50.816;-1.214;2023-04-26T03:55:00;101632.55;;;23.68;100.00
47983;BME280;33751;50.816;-1.214;2023-04-26T03:57:28;101637.07;;;23.77;100.00
47983;BME280;33751;50.816;-1.214;2023-04-26T03:59:54;101630.79;;;23.83;100.00
47983;BME280;33751;50.816;-1.214;2023-04-26T04:02:21;101619.25;;;23.77;100.00
47983;BME280;33751;50.816;-1.214;2023-04-26T04:04:47;101615.80;;;23.79;100.00
47983;BME280;33751;50.816;-1.214;2023-04-26T04:07:14;101610.18;;;23.97;100.00
47983;BME280;33751;50.816;-1.214;2023-04-26T04:09:40;101611.01;;;23.82;100.00
47983;BME280;33751;50.816;-1.214;2023-04-26T04:12:07;101608.02;;;24.12;100.00
47983;BME280;33751;50.816;-1.214;2023-04-26T04:14:33;101607.82;;;24.12;100.00
47983;BME280;33751;50.816;-1.214;2023-04-26T04:17:00;101606.53;;;24.04;100.00
47983;BME280;33751;50.816;-1.214;2023-04-26T04:19:27;101605.14;;;23.39;100.00
47983;BME280;33751;50.816;-1.214;2023-04-26T04:21:53;101602.23;;;23.51;100.00
47983;BME280;33751;50.816;-1.214;2023-04-26T04:24:20;101602.79;;;23.78;100.00
47983;BME280;33751;50.816;-1.214;2023-04-26T04:26:46;101600.41;;;23.72;100.00
47983;BME280;33751;50.816;-1.214;2023-04-26T04:29:13;101596.76;;;23.96;100.00
47983;BME280;33751;50.816;-1.214;2023-04-26T04:31:39;101595.09;;;23.53;100.00
47983;BME280;33751;50.816;-1.214;2023-04-26T04:34:06;101592.30;;;23.96;100.00
47983;BME280;33751;50.816;-1.214;2023-04-26T04:36:32;101589.89;;;23.71;100.00
47983;BME280;33751;50.816;-1.214;2023-04-26T04:38:59;101591.01;;;23.45;100.00
47983;BME280;33751;50.816;-1.214;2023-04-26T04:41:25;101584.72;;;23.29;100.00
47983;BME280;33751;50.816;-1.214;2023-04-26T04:43:52;101588.21;;;23.92;100.00
47983;BME280;33751;50.816;-1.214;2023-04-26T04:46:18;101589.26;;;23.66;100.00
47983;BME280;33751;50.816;-1.214;2023-04-26T04:48:45;101597.05;;;23.67;100.00
47983;BME280;33751;50.816;-1.214;2023-04-26T04:51:11;101600.24;;;23.38;100.00
47983;BME280;33751;50.816;-1.214;2023-04-26T04:53:38;101605.16;;;23.69;100.00
47983;BME280;33751;50.816;-1.214;2023-04-26T04:56:05;101609.58;;;23.85;100.00
47983;BME280;33751;50.816;-1.214;2023-04-26T04:58:32;101612.33;;;23.41;100.00
47983;BME280;33751;50.816;-1.214;2023-04-26T05:00:58;101605.99;;;23.94;100.00
47983;BME280;33751;50.816;-1.214;2023-04-26T05:03:25;101610.05;;;23.41;100.00
47983;BME280;33751;50.816;-1.214;2023-04-26T05:05:51;101613.81;;;23.71;100.00
47983;BME280;33751;50.816;-1.214;2023-04-26T05:08:18;101613.66;;;23.85;100.00
47983;BME280;33751;50.816;-1.214;2023-04-26T05:10:45;101614.39;;;23.80;100.00
47983;BME280;33751;50.816;-1.214;2023-04-26T05:13:12;101612.36;;;23.77;100.00
47983;BME280;33751;50.816;-1.214;2023-04-26T05:15:38;101607.46;;;23.76;100.00
47983;BME280;33751;50.816;-1.214;2023-04-26T05:18:05;101611.15;;;23.73;100.00
47983;BME280;33751;50.816;-1.214;2023-04-26T05:20:31;101606.25;;;23.73;100.00
47983;BME280;33751;50.816;-1.214;2023-04-26T05:22:58;101605.24;;;23.50;100.00
47983;BME280;33751;50.816;-1.214;2023-04-26T05:25:24;101611.31;;;23.25;100.00
47983;BME280;33751;50.816;-1.214;2023-04-26T05:27:51;101611.85;;;23.63;100.00
47983;BME280;33751;50.816;-1.214;2023-04-26T05:30:17;101608.76;;;23.79;100.00
47983;BME280;33751;50.816;-1.214;2023-04-26T05:32:44;101608.81;;;23.78;100.00
47983;BME280;33751;50.816;-1.214;2023-04-26T05:35:10;101609.90;;;23.85;100.00
47983;BME280;33751;50.816;-1.214;2023-04-26T05:37:37;101610.69;;;23.71;100.00
47983;BME280;33751;50.816;-1.214;2023-04-26T05:40:05;101608.85;;;23.93;100.00
47983;BME280;33751;50.816;-1.214;2023-04-26T05:42:32;101609.49;;;23.75;100.00
47983;BME280;33751;50.816;-1.214;2023-04-26T05:44:58;101612.14;;;24.13;100.00
47983;BME280;33751;50.816;-1.214;2023-04-26T05:47:25;101613.47;;;23.86;100.00
47983;BME280;33751;50.816;-1.214;2023-04-26T05:49:51;101614.40;;;24.29;100.00
47983;BME280;33751;50.816;-1.214;2023-04-26T05:52:18;101619.20;;;24.36;100.00
47983;BME280;33751;50.816;-1.214;2023-04-26T05:54:44;101623.26;;;24.31;100.00
47983;BME280;33751;50.816;-1.214;2023-04-26T05:57:11;101626.53;;;24.64;100.00
47983;BME280;33751;50.816;-1.214;2023-04-26T05:59:37;101630.46;;;24.26;100.00
47983;BME280;33751;50.816;-1.214;2023-04-26T06:02:04;101634.85;;;24.61;100.00
47983;BME280;33751;50.816;-1.214;2023-04-26T06:04:30;101640.94;;;24.66;100.00
47983;BME280;33751;50.816;-1.214;2023-04-26T06:06:57;101646.44;;;24.60;100.00
47983;BME280;33751;50.816;-1.214;2023-04-26T06:09:23;101651.70;;;24.81;100.00
47983;BME280;33751;50.816;-1.214;2023-04-26T06:11:50;101652.45;;;24.42;100.00
47983;BME280;33751;50.816;-1.214;2023-04-26T06:14:18;101651.30;;;24.92;100.00
47983;BME280;33751;50.816;-1.214;2023-04-26T06:16:44;101650.81;;;24.89;100.00
47983;BME280;33751;50.816;-1.214;2023-04-26T06:19:11;101653.00;;;24.97;100.00
47983;BME280;33751;50.816;-1.214;2023-04-26T06:21:37;101653.18;;;24.56;100.00
47983;BME280;33751;50.816;-1.214;2023-04-26T06:24:04;101649.94;;;24.92;100.00
47983;BME280;33751;50.816;-1.214;2023-04-26T06:26:31;101647.37;;;24.46;100.00
47983;BME280;33751;50.816;-1.214;2023-04-26T06:28:57;101642.38;;;24.94;100.00
47983;BME280;33751;50.816;-1.214;2023-04-26T06:31:24;101641.55;;;24.63;100.00
47983;BME280;33751;50.816;-1.214;2023-04-26T06:33:51;101642.19;;;25.18;100.00
47983;BME280;33751;50.816;-1.214;2023-04-26T06:36:17;101640.69;;;25.05;100.00
47983;BME280;33751;50.816;-1.214;2023-04-26T06:38:44;101642.14;;;24.54;100.00
47983;BME280;33751;50.816;-1.214;2023-04-26T06:41:10;101640.29;;;25.30;100.00
47983;BME280;33751;50.816;-1.214;2023-04-26T06:43:36;101641.07;;;24.88;100.00
47983;BME280;33751;50.816;-1.214;2023-04-26T06:46:03;101635.18;;;25.03;100.00
47983;BME280;33751;50.816;-1.214;2023-04-26T06:48:30;101634.38;;;25.32;100.00
47983;BME280;33751;50.816;-1.214;2023-04-26T06:50:57;101633.23;;;25.13;100.00
47983;BME280;33751;50.816;-1.214;2023-04-26T06:53:23;101631.90;;;25.42;100.00
47983;BME280;33751;50.816;-1.214;2023-04-26T06:55:50;101631.40;;;25.54;100.00
47983;BME280;33751;50.816;-1.214;2023-04-26T06:58:16;101627.44;;;25.43;100.00
47983;BME280;33751;50.816;-1.214;2023-04-26T07:00:43;101625.79;;;25.46;100.00
47983;BME280;33751;50.816;-1.214;2023-04-26T07:03:09;101625.70;;;25.58;100.00
47983;BME280;33751;50.816;-1.214;2023-04-26T07:05:38;101619.83;;;25.48;100.00
47983;BME280;33751;50.816;-1.214;2023-04-26T07:08:05;101616.35;;;25.63;100.00
47983;BME280;33751;50.816;-1.214;2023-04-26T07:10:32;101613.79;;;25.84;100.00
47983;BME280;33751;50.816;-1.214;2023-04-26T07:12:59;101620.56;;;25.97;100.00
47983;BME280;33751;50.816;-1.214;2023-04-26T07:15:27;101617.37;;;26.07;100.00
47983;BME280;33751;50.816;-1.214;2023-04-26T07:17:54;101618.03;;;26.15;100.00
47983;BME280;33751;50.816;-1.214;2023-04-26T07:20:20;101614.82;;;26.55;100.00
47983;BME280;33751;50.816;-1.214;2023-04-26T07:22:47;101617.43;;;26.11;100.00
47983;BME280;33751;50.816;-1.214;2023-04-26T07:25:14;101611.64;;;26.40;100.00
47983;BME280;33751;50.816;-1.214;2023-04-26T07:27:41;101614.07;;;26.23;100.00
47983;BME280;33751;50.816;-1.214;2023-04-26T07:30:08;101608.79;;;26.81;100.00
47983;BME280;33751;50.816;-1.214;2023-04-26T07:32:35;101607.84;;;27.42;100.00
47983;BME280;33751;50.816;-1.214;2023-04-26T07:35:06;101606.84;;;27.72;100.00
47983;BME280;33751;50.816;-1.214;2023-04-26T07:37:33;101611.62;;;27.52;100.00
47983;BME280;33751;50.816;-1.214;2023-04-26T07:40:00;101608.11;;;28.13;100.00
47983;BME280;33751;50.816;-1.214;2023-04-26T07:42:26;101604.59;;;28.16;100.00
47983;BME280;33751;50.816;-1.214;2023-04-26T07:44:53;101607.36;;;27.93;100.00
47983;BME280;33751;50.816;-1.214;2023-04-26T07:47:19;101611.14;;;27.49;100.00
47983;BME280;33751;50.816;-1.214;2023-04-26T07:49:45;101610.00;;;27.35;100.00
47983;BME280;33751;50.816;-1.214;2023-04-26T07:52:12;101613.38;;;27.19;100.00
47983;BME280;33751;50.816;-1.214;2023-04-26T07:54:38;101610.99;;;27.31;100.00
47983;BME280;33751;50.816;-1.214;2023-04-26T07:57:06;101610.54;;;27.63;100.00
47983;BME280;33751;50.816;-1.214;2023-04-26T07:59:32;101610.09;;;27.96;100.00
47983;BME280;33751;50.816;-1.214;2023-04-26T08:01:59;101614.06;;;27.75;100.00
47983;BME280;33751;50.816;-1.214;2023-04-26T08:04:32;101618.08;;;27.67;100.00
47983;BME280;33751;50.816;-1.214;2023-04-26T08:07:00;101621.87;;;27.16;100.00
47983;BME280;33751;50.816;-1.214;2023-04-26T08:09:27;101620.97;;;27.63;100.00
47983;BME280;33751;50.816;-1.214;2023-04-26T08:11:54;101622.03;;;27.55;100.00
47983;BME280;33751;50.816;-1.214;2023-04-26T08:14:21;101623.52;;;27.65;100.00
47983;BME280;33751;50.816;-1.214;2023-04-26T08:16:47;101623.94;;;27.20;100.00
47983;BME280;33751;50.816;-1.214;2023-04-26T08:19:14;101627.21;;;26.82;100.00
47983;BME280;33751;50.816;-1.214;2023-04-26T08:21:40;101628.34;;;26.52;100.00
47983;BME280;33751;50.816;-1.214;2023-04-26T08:24:07;101633.37;;;27.02;100.00
47983;BME280;33751;50.816;-1.214;2023-04-26T08:26:33;101634.16;;;26.57;100.00
47983;BME280;33751;50.816;-1.214;2023-04-26T08:29:00;101632.44;;;26.84;100.00
47983;BME280;33751;50.816;-1.214;2023-04-26T08:31:26;101636.40;;;26.36;100.00
47983;BME280;33751;50.816;-1.214;2023-04-26T08:33:53;101636.28;;;26.86;100.00
47983;BME280;33751;50.816;-1.214;2023-04-26T08:36:20;101630.97;;;26.87;100.00
47983;BME280;33751;50.816;-1.214;2023-04-26T08:38:46;101630.72;;;26.88;100.00
47983;BME280;33751;50.816;-1.214;2023-04-26T08:41:14;101636.66;;;26.80;100.00
47983;BME280;33751;50.816;-1.214;2023-04-26T08:43:48;101635.58;;;26.76;100.00
47983;BME280;33751;50.816;-1.214;2023-04-26T08:46:18;101637.48;;;26.59;100.00
47983;BME280;33751;50.816;-1.214;2023-04-26T08:48:50;101641.19;;;26.43;100.00
47983;BME280;33751;50.816;-1.214;2023-04-26T08:51:20;101638.89;;;26.67;100.00
47983;BME280;33751;50.816;-1.214;2023-04-26T08:53:48;101636.99;;;26.47;100.00
47983;BME280;33751;50.816;-1.214;2023-04-26T08:56:15;101632.86;;;26.49;100.00
47983;BME280;33751;50.816;-1.214;2023-04-26T08:58:42;101631.54;;;26.66;100.00
47983;BME280;33751;50.816;-1.214;2023-04-26T09:01:13;101626.59;;;26.46;100.00
47983;BME280;33751;50.816;-1.214;2023-04-26T09:03:40;101623.31;;;26.62;100.00
47983;BME280;33751;50.816;-1.214;2023-04-26T09:06:07;101625.67;;;27.13;100.00
47983;BME280;33751;50.816;-1.214;2023-04-26T09:08:35;101623.56;;;27.22;100.00
47983;BME280;33751;50.816;-1.214;2023-04-26T09:11:05;101626.11;;;28.07;100.00
47983;BME280;33751;50.816;-1.214;2023-04-26T09:13:32;101638.57;;;28.23;100.00
47983;BME280;33751;50.816;-1.214;2023-04-26T09:15:58;101632.62;;;28.56;100.00
47983;BME280;33751;50.816;-1.214;2023-04-26T09:18:25;101635.42;;;27.65;100.00
47983;BME280;33751;50.816;-1.214;2023-04-26T09:21:08;101638.07;;;28.26;100.00
47983;BME280;33751;50.816;-1.214;2023-04-26T09:23:34;101635.59;;;27.90;100.00
47983;BME280;33751;50.816;-1.214;2023-04-26T09:26:17;101636.02;;;27.65;100.00
47983;BME280;33751;50.816;-1.214;2023-04-26T09:28:44;101638.81;;;27.83;100.00
47983;BME280;33751;50.816;-1.214;2023-04-26T09:31:13;101646.44;;;27.73;100.00
47983;BME280;33751;50.816;-1.214;2023-04-26T09:34:04;101644.26;;;27.37;100.00
47983;BME280;33751;50.816;-1.214;2023-04-26T09:36:31;101650.09;;;26.99;100.00
47983;BME280;33751;50.816;-1.214;2023-04-26T09:38:57;101651.76;;;27.35;100.00
47983;BME280;33751;50.816;-1.214;2023-04-26T09:41:41;101656.10;;;26.93;100.00
47983;BME280;33751;50.816;-1.214;2023-04-26T09:44:19;101651.28;;;26.92;100.00
47983;BME280;33751;50.816;-1.214;2023-04-26T09:46:57;101647.65;;;26.91;100.00
47983;BME280;33751;50.816;-1.214;2023-04-26T09:49:25;101651.24;;;26.86;100.00
47983;BME280;33751;50.816;-1.214;2023-04-26T09:52:00;101653.37;;;26.73;100.00
47983;BME280;33751;50.816;-1.214;2023-04-26T09:54:44;101649.71;;;26.75;100.00
47983;BME280;33751;50.816;-1.214;2023-04-26T09:57:13;101647.71;;;27.20;100.00
47983;BME280;33751;50.816;-1.214;2023-04-26T09:59:41;101643.29;;;26.87;100.00
47983;BME280;33751;50.816;-1.214;2023-04-26T10:02:13;101648.24;;;26.64;100.00
47983;BME280;33751;50.816;-1.214;2023-04-26T10:04:41;101647.32;;;26.39;100.00
47983;BME280;33751;50.816;-1.214;2023-04-26T10:07:10;101642.60;;;26.78;100.00
47983;BME280;33751;50.816;-1.214;2023-04-26T10:09:37;101640.86;;;26.11;100.00
47983;BME280;33751;50.816;-1.214;2023-04-26T10:12:05;101641.09;;;26.56;100.00
47983;BME280;33751;50.816;-1.214;2023-04-26T10:14:33;101643.69;;;26.22;100.00
47983;BME280;33751;50.816;-1.214;2023-04-26T10:17:00;101638.92;;;26.26;100.00
47983;BME280;33751;50.816;-1.214;2023-04-26T10:19:29;101636.30;;;26.31;100.00
47983;BME280;33751;50.816;-1.214;2023-04-26T10:22:00;101638.22;;;26.14;100.00
47983;BME280;33751;50.816;-1.214;2023-04-26T10:24:30;101638.51;;;26.06;100.00
47983;BME280;33751;50.816;-1.214;2023-04-26T10:26:57;101631.88;;;26.14;100.00
47983;BME280;33751;50.816;-1.214;2023-04-26T10:29:25;101630.74;;;26.40;100.00
47983;BME280;33751;50.816;-1.214;2023-04-26T10:32:08;101636.65;;;26.28;100.00
47983;BME280;33751;50.816;-1.214;2023-04-26T10:34:36;101632.75;;;26.32;100.00
47983;BME280;33751;50.816;-1.214;2023-04-26T10:37:06;101631.06;;;26.38;100.00
47983;BME280;33751;50.816;-1.214;2023-04-26T10:39:33;101631.80;;;26.67;100.00
47983;BME280;33751;50.816;-1.214;2023-04-26T10:42:20;101627.99;;;26.42;100.00
47983;BME280;33751;50.816;-1.214;2023-04-26T10:44:48;101623.30;;;26.50;100.00
47983;BME280;33751;50.816;-1.214;2023-04-26T10:47:28;101618.22;;;27.12;100.00
47983;BME280;33751;50.816;-1.214;2023-04-26T10:50:05;101619.98;;;26.54;100.00
47983;BME280;33751;50.816;-1.214;2023-04-26T10:52:33;101619.99;;;26.45;100.00
47983;BME280;33751;50.816;-1.214;2023-04-26T10:55:00;101623.83;;;26.60;100.00
47983;BME280;33751;50.816;-1.214;2023-04-26T10:57:59;101623.90;;;27.20;100.00
47983;BME280;33751;50.816;-1.214;2023-04-26T11:00:28;101622.76;;;26.72;100.00
47983;BME280;33751;50.816;-1.214;2023-04-26T11:02:57;101623.20;;;26.71;100.00
47983;BME280;33751;50.816;-1.214;2023-04-26T11:05:34;101623.52;;;26.57;100.00
47983;BME280;33751;50.816;-1.214;2023-04-26T11:08:05;101622.59;;;26.76;100.00
47983;BME280;33751;50.816;-1.214;2023-04-26T11:10:32;101626.81;;;26.76;100.00
47983;BME280;33751;50.816;-1.214;2023-04-26T11:13:00;101622.08;;;26.63;100.00
47983;BME280;33751;50.816;-1.214;2023-04-26T11:15:28;101620.26;;;26.70;100.00
47983;BME280;33751;50.816;-1.214;2023-04-26T11:17:54;101621.84;;;26.73;100.00
47983;BME280;33751;50.816;-1.214;2023-04-26T11:20:21;101622.91;;;26.70;100.00
47983;BME280;33751;50.816;-1.214;2023-04-26T11:22:48;101626.47;;;26.45;100.00
47983;BME280;33751;50.816;-1.214;2023-04-26T11:25:15;101631.59;;;26.65;100.00
47983;BME280;33751;50.816;-1.214;2023-04-26T11:27:42;101626.45;;;26.87;100.00
47983;BME280;33751;50.816;-1.214;2023-04-26T11:30:10;101631.87;;;26.68;100.00
47983;BME280;33751;50.816;-1.214;2023-04-26T11:32:37;101630.97;;;26.57;100.00
47983;BME280;33751;50.816;-1.214;2023-04-26T11:35:04;101637.33;;;26.81;100.00
47983;BME280;33751;50.816;-1.214;2023-04-26T11:37:33;101639.67;;;26.63;100.00
47983;BME280;33751;50.816;-1.214;2023-04-26T11:39:59;101634.81;;;26.96;100.00
47983;BME280;33751;50.816;-1.214;2023-04-26T11:42:26;101632.80;;;26.31;100.00
47983;BME280;33751;50.816;-1.214;2023-04-26T11:44:52;101630.48;;;26.61;100.00
47983;BME280;33751;50.816;-1.214;2023-04-26T11:47:23;101637.94;;;26.49;100.00
47983;BME280;33751;50.816;-1.214;2023-04-26T11:49:50;101638.13;;;26.41;100.00
47983;BME280;33751;50.816;-1.214;2023-04-26T11:52:17;101637.29;;;26.63;100.00
47983;BME280;33751;50.816;-1.214;2023-04-26T11:54:43;101637.48;;;26.53;100.00
47983;BME280;33751;50.816;-1.214;2023-04-26T11:57:14;101648.52;;;26.28;100.00
47983;BME280;33751;50.816;-1.214;2023-04-26T11:59:42;101644.07;;;26.76;100.00
47983;BME280;33751;50.816;-1.214;2023-04-26T12:02:09;101641.69;;;26.48;100.00
47983;BME280;33751;50.816;-1.214;2023-04-26T12:04:36;101643.61;;;26.46;100.00
47983;BME280;33751;50.816;-1.214;2023-04-26T12:07:04;101643.91;;;26.59;100.00
47983;BME280;33751;50.816;-1.214;2023-04-26T12:09:30;101636.14;;;26.34;100.00
47983;BME280;33751;50.816;-1.214;2023-04-26T12:11:58;101631.90;;;26.96;100.00
47983;BME280;33751;50.816;-1.214;2023-04-26T12:14:30;101625.23;;;26.45;100.00
47983;BME280;33751;50.816;-1.214;2023-04-26T12:16:58;101622.15;;;26.43;100.00
47983;BME280;33751;50.816;-1.214;2023-04-26T12:19:25;101621.60;;;26.46;100.00
47983;BME280;33751;50.816;-1.214;2023-04-26T12:21:51;101618.13;;;26.93;100.00
47983;BME280;33751;50.816;-1.214;2023-04-26T12:24:21;101617.46;;;26.65;100.00
47983;BME280;33751;50.816;-1.214;2023-04-26T12:26:48;101619.93;;;26.76;100.00
47983;BME280;33751;50.816;-1.214;2023-04-26T12:29:14;101616.11;;;26.78;100.00
47983;BME280;33751;50.816;-1.214;2023-04-26T12:31:41;101623.59;;;26.37;100.00